GW0483 Weather Reports


Display with metric or nautical units.
time (UTC)temp
F
wind
direction
speed
MPH
gust
MPH
rain 1hr
in
rain 24hr
in
rain mn
in
humidity
%
barometer
mb
20240520163256 84 132 6.0 7.0 0.00 0.00 0.00 65 1011.1
20240520162751 84 277 4.0 6.0 0.00 0.00 0.00 66 1010.9
20240520162249 84 196 2.0 3.0 0.00 0.00 0.00 69 1011.1
20240520161740 84 162 6.0 8.0 0.00 0.00 0.00 69 1011.1
20240520161239 84 3 4.0 5.0 0.00 0.00 0.00 70 1010.9
20240520160738 83 138 4.0 5.0 0.00 0.00 0.00 69 1011.0
20240520160238 83 226 5.0 7.0 0.00 0.00 0.00 70 1011.0
20240520155737 83 190 8.0 9.0 0.00 0.00 0.00 71 1010.8
20240520155237 83 144 4.0 7.0 0.00 0.00 0.00 68 1010.8
20240520154736 83 63 7.0 13.0 0.00 0.00 0.00 67 1010.9
20240520154235 82 237 7.0 11.0 0.00 0.00 0.00 69 1010.9
20240520153734 82 178 4.0 6.0 0.00 0.00 0.00 70 1010.8
20240520153233 82 149 5.0 7.0 0.00 0.00 0.00 72 1011.0
20240520152733 82 171 3.0 6.0 0.00 0.00 0.00 73 1010.8
20240520152231 80 178 4.0 6.0 0.00 0.00 0.00 75 1011.0
20240520151730 80 198 6.0 8.0 0.00 0.00 0.00 75 1011.1
20240520151228 80 111 3.0 5.0 0.00 0.00 0.00 77 1010.8
20240520150727 80 171 4.0 5.0 0.00 0.00 0.00 78 1010.9
20240520150227 80 138 3.0 5.0 0.00 0.00 0.00 78 1010.9
20240520145727 80 141 4.0 5.0 0.00 0.00 0.00 78 1010.8
20240520145226 80 179 5.0 7.0 0.00 0.00 0.00 78 1011.1
20240520144724 79 142 5.0 6.0 0.00 0.00 0.00 79 1010.9
20240520144223 80 213 4.0 5.0 0.00 0.00 0.00 79 1010.9
20240520143722 80 117 3.0 3.0 0.00 0.00 0.00 79 1010.9
20240520143220 79 129 7.0 8.0 0.00 0.00 0.00 80 1010.7
20240520142718 78 184 4.0 5.0 0.00 0.00 0.00 81 1010.9
20240520142217 78 242 4.0 6.0 0.00 0.00 0.00 83 1010.7
20240520141716 77 175 7.0 8.0 0.00 0.00 0.00 85 1010.7
20240520141104 76 188 5.0 8.0 0.00 0.00 0.00 86 1010.7
20240520140604 75 161 3.0 5.0 0.00 0.00 0.00 88 1010.8
20240520140103 77 123 4.0 7.0 0.00 0.00 0.00 87 1010.5
20240520135600 76 125 3.0 3.0 0.00 0.00 0.00 88 1010.8
20240520135059 76 194 6.0 8.0 0.00 0.00 0.00 88 1010.6
20240520134558 75 155 3.0 3.0 0.00 0.00 0.00 90 1010.7
20240520134056 75 237 5.0 7.0 0.00 0.00 0.00 90 1010.5
20240520133554 74 137 3.0 3.0 0.00 0.00 0.00 91 1010.3
20240520133054 74 160 4.0 5.0 0.00 0.00 0.00 91 1010.4
20240520132551 73 182 4.0 6.0 0.00 0.00 0.00 93 1010.4
20240520132050 73 158 2.0 3.0 0.00 0.00 0.00 93 1010.2
20240520131550 73 174 3.0 5.0 0.00 0.00 0.00 93 1010.2
20240520131049 73 147 3.0 5.0 0.00 0.00 0.00 94 1010.5
20240520130548 73 199 3.0 5.0 0.00 0.00 0.00 95 1010.5
20240520130046 72 120 2.0 2.0 0.00 0.00 0.00 95 1010.3
20240520125545 72 149 2.0 3.0 0.00 0.00 0.00 96 1010.1
20240520125044 72 216 6.0 9.0 0.00 0.00 0.00 96 1010.0
20240520124543 71 144 2.0 2.0 0.00 0.00 0.00 96 1010.3
20240520124040 71 207 2.0 3.0 0.00 0.00 0.00 96 1010.0
20240520123539 71 107 3.0 3.0 0.00 0.00 0.00 96 1009.7
20240520123039 71 165 4.0 5.0 0.00 0.00 0.00 97 1010.0
20240520122535 71 97 2.0 3.0 0.00 0.00 0.00 96 1009.8
20240520122035 70 110 2.0 2.0 0.00 0.00 0.00 96 1009.8
20240520121535 70 108 1.0 1.0 0.00 0.00 0.00 96 1009.7
20240520121034 70 123 1.0 2.0 0.00 0.00 0.00 96 1010.0
20240520120533 70 82 1.0 2.0 0.00 0.00 0.00 96 1009.8
20240520120032 70 137 1.0 1.0 0.00 0.00 0.00 96 1009.8
20240520115531 70 144 2.0 2.0 0.00 0.00 0.00 96 1009.5
20240520115029 70 72 1.0 1.0 0.00 0.00 0.00 96 1009.7
20240520114528 70 131 1.0 2.0 0.00 0.00 0.00 96 1009.5
20240520114025 70 82 1.0 1.0 0.00 0.00 0.00 96 1009.3
20240520113523 70 170 2.0 3.0 0.00 0.00 0.00 96 1009.4
20240520113021 70 112 2.0 2.0 0.00 0.00 0.00 96 1009.5
20240520112520 70 185 3.0 3.0 0.00 0.00 0.00 96 1009.4
20240520112018 70 128 2.0 3.0 0.00 0.00 0.00 96 1009.5
20240520111515 70 121 2.0 2.0 0.00 0.00 0.00 96 1009.5
20240520111015 70 150 3.0 5.0 0.00 0.00 0.00 96 1009.6
20240520110513 71 115 3.0 5.0 0.00 0.00 0.00 96 1009.5
20240520110012 71 137 2.0 2.0 0.00 0.00 0.00 96 1009.6
20240520105509 71 151 2.0 3.0 0.00 0.00 0.00 96 1009.6
20240520105008 70 162 2.0 2.0 0.00 0.00 0.00 96 1009.7
20240520104507 70 226 1.0 2.0 0.00 0.00 0.00 96 1009.7
20240520104006 70 149 1.0 1.0 0.00 0.00 0.00 95 1009.7
20240520103504 70 143 2.0 3.0 0.00 0.00 0.00 95 1009.5
20240520103002 71 151 4.0 5.0 0.00 0.00 0.00 95 1009.6
20240520102501 71 198 2.0 3.0 0.00 0.00 0.00 95 1009.8
20240520102001 71 193 6.0 8.0 0.00 0.00 0.00 95 1010.0
20240520101459 71 24 5.0 7.0 0.00 0.00 0.00 95 1010.0
20240520100958 71 137 2.0 2.0 0.00 0.00 0.00 95 1009.7
20240520100457 71 154 2.0 3.0 0.00 0.00 0.00 94 1009.6
20240520095957 71 193 3.0 5.0 0.00 0.00 0.00 94 1009.8
20240520095456 70 158 3.0 3.0 0.00 0.00 0.00 94 1009.3
20240520094955 70 205 2.0 5.0 0.00 0.00 0.00 94 1009.5
20240520094455 70 135 3.0 3.0 0.00 0.00 0.00 94 1009.3
20240520093954 70 123 3.0 3.0 0.00 0.00 0.00 94 1009.4
20240520093452 70 137 2.0 2.0 0.00 0.00 0.00 94 1009.1
20240520092950 70 167 3.0 5.0 0.00 0.00 0.00 93 1009.0
20240520092450 70 111 3.0 5.0 0.00 0.00 0.00 93 1009.2
20240520091949 70 205 2.0 3.0 0.00 0.00 0.00 93 1009.0
20240520091447 70 146 3.0 5.0 0.00 0.00 0.00 93 1009.1
20240520090945 70 139 3.0 5.0 0.00 0.00 0.00 93 1009.1
20240520090445 69 211 3.0 3.0 0.00 0.00 0.00 93 1008.9
20240520085944 69 139 3.0 3.0 0.00 0.00 0.00 93 1009.1
20240520085443 69 155 1.0 2.0 0.00 0.00 0.00 92 1009.1
20240520084940 69 101 2.0 2.0 0.00 0.00 0.00 92 1009.2
20240520084439 69 183 3.0 5.0 0.00 0.00 0.00 92 1009.1
20240520083937 69 140 2.0 2.0 0.00 0.00 0.00 92 1009.1
20240520083436 69 181 2.0 3.0 0.00 0.00 0.00 91 1009.4
20240520082933 69 169 2.0 2.0 0.00 0.00 0.00 91 1009.2
20240520082432 69 187 3.0 3.0 0.00 0.00 0.00 91 1009.5
20240520081930 69 167 2.0 2.0 0.00 0.00 0.00 91 1009.2
20240520081428 69 195 3.0 3.0 0.00 0.00 0.00 91 1009.2
20240520080927 70 205 3.0 5.0 0.00 0.00 0.00 90 1009.2
20240520080426 70 134 3.0 3.0 0.00 0.00 0.00 90 1009.4
20240520075925 70 142 3.0 5.0 0.00 0.00 0.00 90 1009.4
20240520075424 70 58 3.0 6.0 0.00 0.00 0.00 89 1009.3
20240520074922 70 136 3.0 3.0 0.00 0.00 0.00 89 1009.3
20240520074420 71 124 4.0 7.0 0.00 0.00 0.00 88 1009.3
20240520073919 71 160 4.0 7.0 0.00 0.00 0.00 88 1009.5
20240520073417 71 156 2.0 2.0 0.00 0.00 0.00 88 1009.8
20240520072916 71 102 2.0 2.0 0.00 0.00 0.00 87 1009.8
20240520072416 71 138 3.0 3.0 0.00 0.00 0.00 87 1009.7
20240520071914 71 95 3.0 3.0 0.00 0.00 0.00 86 1009.8
20240520071414 71 148 3.0 5.0 0.00 0.00 0.00 86 1010.1
20240520070912 72 219 4.0 7.0 0.00 0.00 0.00 86 1009.8
20240520070411 72 234 3.0 5.0 0.00 0.00 0.00 86 1010.0
20240520065910 72 197 4.0 6.0 0.00 0.00 0.00 86 1010.2
20240520065410 72 76 5.0 6.0 0.00 0.00 0.00 86 1010.0
20240520064909 72 150 5.0 6.0 0.00 0.00 0.00 85 1010.2
20240520064408 73 139 4.0 7.0 0.00 0.00 0.00 86 1010.1
20240520063908 73 188 4.0 6.0 0.00 0.00 0.00 86 1010.1
20240520063408 73 143 4.0 6.0 0.00 0.00 0.00 87 1010.0
20240520062907 73 173 4.0 5.0 0.00 0.00 0.00 87 1010.3
20240520062405 73 171 4.0 5.0 0.00 0.00 0.00 87 1010.6
20240520061905 73 137 4.0 7.0 0.00 0.00 0.00 87 1010.5
20240520061402 73 36 4.0 5.0 0.00 0.00 0.00 87 1010.5
20240520060902 73 172 6.0 7.0 0.00 0.00 0.00 87 1010.4
20240520060401 74 148 3.0 5.0 0.00 0.00 0.00 87 1010.5
20240520055900 74 149 5.0 7.0 0.00 0.00 0.00 86 1010.4
20240520055358 74 157 4.0 6.0 0.00 0.00 0.00 87 1010.2
20240520054858 74 165 3.0 3.0 0.00 0.00 0.00 88 1010.5
20240520054356 75 147 3.0 3.0 0.00 0.00 0.00 89 1010.6
20240520053854 75 220 3.0 3.0 0.00 0.00 0.00 88 1010.9
20240520053354 75 166 4.0 6.0 0.00 0.00 0.00 89 1010.7
20240520052853 75 143 4.0 5.0 0.00 0.00 0.00 89 1010.5
20240520052352 75 150 3.0 3.0 0.00 0.00 0.00 89 1010.6
20240520051851 76 188 4.0 5.0 0.00 0.00 0.00 89 1010.4
20240520051351 76 145 5.0 6.0 0.00 0.00 0.00 88 1010.3
20240520050850 76 160 5.0 5.0 0.00 0.00 0.00 87 1010.5
20240520050350 76 135 3.0 3.0 0.00 0.00 0.00 87 1010.6
20240520045848 76 64 3.0 5.0 0.00 0.00 0.00 86 1010.3
20240520045347 76 168 5.0 6.0 0.00 0.00 0.00 85 1010.2
20240520044846 77 147 3.0 5.0 0.00 0.00 0.00 84 1010.3
20240520044345 77 156 5.0 6.0 0.00 0.00 0.00 83 1010.3
20240520043844 77 128 4.0 5.0 0.00 0.00 0.00 83 1010.3
20240520043341 77 157 3.0 3.0 0.00 0.00 0.00 82 1010.3
20240520042841 77 97 4.0 6.0 0.00 0.00 0.00 81 1010.3
20240520042340 77 121 6.0 8.0 0.00 0.00 0.00 81 1010.3
20240520041838 78 159 3.0 5.0 0.00 0.00 0.00 80 1010.4
20240520041339 78 204 5.0 7.0 0.00 0.00 0.00 79 1010.1
20240520040838 78 131 4.0 6.0 0.00 0.00 0.00 78 1010.4
20240520040336 78 157 4.0 6.0 0.00 0.00 0.00 77 1010.3
20240520035835 79 134 5.0 6.0 0.00 0.00 0.00 76 1010.5
20240520035335 79 127 5.0 7.0 0.00 0.00 0.00 75 1010.4
20240520034833 79 191 3.0 7.0 0.00 0.00 0.00 74 1010.4
20240520034331 79 157 4.0 5.0 0.00 0.00 0.00 72 1010.4
20240520033829 80 134 4.0 5.0 0.00 0.00 0.00 71 1010.5
20240520033329 80 119 3.0 3.0 0.00 0.00 0.00 69 1010.3
20240520032827 80 139 3.0 3.0 0.00 0.00 0.00 69 1010.3
20240520032327 80 158 5.0 6.0 0.00 0.00 0.00 68 1010.5
20240520031825 80 170 5.0 6.0 0.00 0.00 0.00 67 1010.3
20240520031324 81 161 3.0 3.0 0.00 0.00 0.00 67 1010.1
20240520030824 81 128 4.0 5.0 0.00 0.00 0.00 66 1010.3
20240520030321 81 138 2.0 2.0 0.00 0.00 0.00 66 1010.1
20240520025820 81 184 5.0 8.0 0.00 0.00 0.00 65 1010.2
20240520025319 82 124 4.0 5.0 0.00 0.00 0.00 65 1010.0
20240520024818 82 156 5.0 7.0 0.00 0.00 0.00 64 1009.8
20240520024316 82 162 10.0 14.0 0.00 0.00 0.00 64 1010.0
20240520023816 82 164 3.0 5.0 0.00 0.00 0.00 64 1009.6
20240520023314 82 353 3.0 5.0 0.00 0.00 0.00 65 1009.8
20240520022813 82 65 3.0 5.0 0.00 0.00 0.00 64 1010.2
20240520022312 82 137 5.0 6.0 0.00 0.00 0.00 64 1010.2
20240520021812 82 127 3.0 5.0 0.00 0.00 0.00 64 1010.1
20240520021311 82 63 1.0 2.0 0.00 0.00 0.00 64 1010.0
20240520020811 83 119 3.0 3.0 0.00 0.00 0.00 64 1010.0
20240520020310 83 124 3.0 5.0 0.00 0.00 0.00 63 1010.0
20240520015809 83 140 3.0 3.0 0.00 0.00 0.00 63 1009.8
20240520015306 83 293 4.0 5.0 0.00 0.00 0.00 62 1009.6
20240520014805 84 152 1.0 2.0 0.00 0.00 0.00 62 1009.8
20240520014304 84 119 3.0 3.0 0.00 0.00 0.00 61 1009.8
20240520013803 84 116 3.0 3.0 0.00 0.00 0.00 61 1010.0
20240520013303 84 169 2.0 3.0 0.00 0.00 0.00 61 1010.0
20240520012803 85 102 2.0 2.0 0.00 0.00 0.00 60 1010.2
20240520012301 85 80 2.0 3.0 0.00 0.00 0.00 60 1010.2
20240520011800 85 126 3.0 3.0 0.00 0.00 0.00 59 1010.0
20240520011300 85 128 2.0 2.0 0.00 0.00 0.00 59 1010.2
20240520010758 86 83 1.0 2.0 0.00 0.00 0.00 58 1010.1
20240520010256 86 169 2.0 3.0 0.00 0.00 0.00 58 1010.0
20240520005755 86 150 2.0 3.0 0.00 0.00 0.00 58 1010.1
20240520005253 86 105 1.0 1.0 0.00 0.00 0.00 58 1010.0
20240520004753 87 164 5.0 6.0 0.00 0.00 0.00 57 1009.8
20240520004251 87 131 5.0 6.0 0.00 0.00 0.00 56 1009.8
20240520003750 87 157 2.0 3.0 0.00 0.00 0.00 55 1009.7
20240520003250 87 174 3.0 3.0 0.00 0.00 0.00 55 1009.7
20240520002750 88 139 3.0 3.0 0.00 0.00 0.00 54 1009.7
20240520002250 88 128 3.0 3.0 0.00 0.00 0.00 54 1009.7
20240520001748 88 167 3.0 3.0 0.00 0.00 0.00 52 1009.5
20240520001248 89 136 4.0 5.0 0.00 0.00 0.00 52 1009.4
20240520000747 89 86 4.0 5.0 0.00 0.00 0.00 52 1009.7
20240520000246 89 155 4.0 5.0 0.00 0.00 0.00 52 1009.8
20240519235743 89 128 3.0 5.0 0.00 0.00 0.00 51 1009.7
20240519235243 89 174 4.0 5.0 0.00 0.00 0.00 52 1009.8
20240519234741 89 216 5.0 7.0 0.00 0.00 0.00 51 1010.0
20240519234240 90 157 3.0 5.0 0.00 0.00 0.00 51 1010.0
20240519233739 90 157 4.0 7.0 0.00 0.00 0.00 52 1010.0
20240519233236 90 159 6.0 8.0 0.00 0.00 0.00 51 1010.0
20240519232734 91 136 6.0 9.0 0.00 0.00 0.00 51 1009.8
20240519232233 91 136 2.0 3.0 0.00 0.00 0.00 50 1010.0
20240519231733 91 126 2.0 2.0 0.00 0.00 0.00 52 1010.1
20240519231231 91 140 5.0 6.0 0.00 0.00 0.00 50 1010.1
20240519230730 91 173 3.0 3.0 0.00 0.00 0.00 50 1010.3
20240519230229 91 106 2.0 2.0 0.00 0.00 0.00 52 1010.0
20240519225728 91 110 5.0 6.0 0.00 0.00 0.00 51 1010.2
20240519225227 92 185 4.0 7.0 0.00 0.00 0.00 51 1010.3
20240519224726 92 157 2.0 3.0 0.00 0.00 0.00 50 1010.3
20240519224225 92 150 1.0 2.0 0.00 0.00 0.00 51 1010.3
20240519223724 91 3 3.0 3.0 0.00 0.00 0.00 50 1010.3
20240519223222 91 138 5.0 7.0 0.00 0.00 0.00 51 1010.5
20240519222721 91 263 3.0 3.0 0.00 0.00 0.00 51 1010.3
20240519222220 91 92 4.0 7.0 0.00 0.00 0.00 50 1010.4
20240519221720 92 165 5.0 6.0 0.00 0.00 0.00 51 1010.5
20240519221219 91 149 5.0 7.0 0.00 0.00 0.00 51 1010.5
20240519220717 91 142 4.0 6.0 0.00 0.00 0.00 50 1010.6
20240519220216 91 92 3.0 6.0 0.00 0.00 0.00 51 1010.4
20240519215715 92 264 5.0 6.0 0.00 0.00 0.00 50 1010.5
20240519215215 93 75 5.0 7.0 0.00 0.00 0.00 49 1010.6
20240519214713 92 160 4.0 6.0 0.00 0.00 0.00 49 1010.8
20240519214211 92 170 3.0 3.0 0.00 0.00 0.00 51 1010.8
20240519213710 92 156 3.0 3.0 0.00 0.00 0.00 49 1010.8
20240519213208 91 162 6.0 7.0 0.00 0.00 0.00 52 1010.9
20240519212706 91 143 7.0 9.0 0.00 0.00 0.00 52 1010.9
20240519212205 91 35 1.0 2.0 0.00 0.00 0.00 52 1011.0
20240519211705 92 151 5.0 6.0 0.00 0.00 0.00 52 1011.2
20240519211204 92 142 6.0 8.0 0.00 0.00 0.00 50 1011.0
20240519210703 92 155 6.0 7.0 0.00 0.00 0.00 52 1010.9
20240519210201 91 113 3.0 3.0 0.00 0.00 0.00 52 1011.2
20240519205700 91 116 3.0 3.0 0.00 0.00 0.00 53 1011.1
20240519205159 91 178 3.0 6.0 0.00 0.00 0.00 54 1011.2
20240519204657 92 155 5.0 7.0 0.00 0.00 0.00 52 1011.4
20240519204156 91 194 3.0 6.0 0.00 0.00 0.00 52 1011.4
20240519203655 92 192 2.0 3.0 0.00 0.00 0.00 51 1011.6
20240519203152 92 187 4.0 5.0 0.00 0.00 0.00 52 1011.6
20240519202651 92 56 3.0 5.0 0.00 0.00 0.00 51 1011.6
20240519202151 91 214 4.0 5.0 0.00 0.00 0.00 52 1011.6
20240519201650 93 197 4.0 5.0 0.00 0.00 0.00 51 1011.9
20240519201148 91 108 4.0 6.0 0.00 0.00 0.00 53 1011.8
20240519200649 90 146 5.0 7.0 0.00 0.00 0.00 53 1011.9
20240519200148 90 151 5.0 7.0 0.00 0.00 0.00 53 1011.9
20240519195647 90 111 5.0 7.0 0.00 0.00 0.00 55 1011.9
20240519195146 91 41 4.0 6.0 0.00 0.00 0.00 53 1012.1
20240519194645 91 76 2.0 3.0 0.00 0.00 0.00 54 1011.9
20240519194143 91 129 3.0 7.0 0.00 0.00 0.00 53 1012.2
20240519193642 91 136 4.0 5.0 0.00 0.00 0.00 51 1012.1
20240519193141 90 180 5.0 7.0 0.00 0.00 0.00 52 1012.0
20240519192640 89 178 6.0 7.0 0.00 0.00 0.00 54 1012.4
20240519192139 90 155 6.0 8.0 0.00 0.00 0.00 53 1012.5
20240519191636 89 231 5.0 7.0 0.00 0.00 0.00 53 1012.8
20240519191134 90 172 3.0 5.0 0.00 0.00 0.00 54 1012.9
20240519190634 90 150 4.0 6.0 0.00 0.00 0.00 55 1012.9
20240519190133 89 151 3.0 5.0 0.00 0.00 0.00 57 1012.6
20240519185632 89 150 6.0 8.0 0.00 0.00 0.00 53 1012.8
20240519185130 89 141 4.0 7.0 0.00 0.00 0.00 54 1013.0
20240519184629 90 123 3.0 3.0 0.00 0.00 0.00 55 1012.8
20240519184127 89 195 7.0 9.0 0.00 0.00 0.00 54 1013.1
20240519183626 89 167 5.0 6.0 0.00 0.00 0.00 55 1013.0
20240519183125 89 133 6.0 7.0 0.00 0.00 0.00 56 1013.2
20240519182624 89 263 3.0 3.0 0.00 0.00 0.00 56 1013.2
20240519182121 87 120 6.0 7.0 0.00 0.00 0.00 58 1013.3
20240519181620 88 127 4.0 6.0 0.00 0.00 0.00 59 1013.6
20240519181118 88 143 7.0 9.0 0.00 0.00 0.00 58 1013.7
20240519180616 87 141 4.0 6.0 0.00 0.00 0.00 60 1013.5
20240519180114 87 13 9.0 14.0 0.00 0.00 0.00 58 1013.8
20240519175612 87 153 7.0 10.0 0.00 0.00 0.00 61 1013.8
20240519175112 87 165 7.0 9.0 0.00 0.00 0.00 61 1013.9
20240519174612 86 149 7.0 10.0 0.00 0.00 0.00 62 1013.9
20240519174112 87 132 7.0 8.0 0.00 0.00 0.00 62 1014.1
20240519173611 86 146 4.0 5.0 0.00 0.00 0.00 64 1014.2
20240519173111 86 139 7.0 10.0 0.00 0.00 0.00 64 1014.1
20240519172609 86 205 14.0 22.0 0.00 0.00 0.00 64 1014.3
20240519172106 85 228 7.0 9.0 0.00 0.00 0.00 64 1014.3
20240519171605 85 158 7.0 9.0 0.00 0.00 0.00 65 1014.3
20240519171105 85 151 5.0 6.0 0.00 0.00 0.00 65 1014.3
20240519170604 85 191 6.0 8.0 0.00 0.00 0.00 65 1014.3
20240519170102 84 86 3.0 3.0 0.00 0.00 0.00 65 1014.4
20240519165602 85 157 3.0 6.0 0.00 0.00 0.00 66 1014.5
20240519165100 84 153 3.0 3.0 0.00 0.00 0.00 69 1014.2
20240519164600 84 154 3.0 3.0 0.00 0.00 0.00 66 1014.5
20240519164057 84 154 3.0 3.0 0.00 0.00 0.00 69 1014.5
20240519163556 84 164 6.0 8.0 0.00 0.00 0.00 67 1014.4